sensor_id;sensor_type;location;lat;lon;timestamp;P1;durP1;ratioP1;P2;durP2;ratioP2
80578;SDS011;69939;52.402;6.608;2023-06-24T00:02:17;11.07;;;6.50;;
80578;SDS011;69939;52.402;6.608;2023-06-24T00:04:44;9.48;;;6.43;;
80578;SDS011;69939;52.402;6.608;2023-06-24T00:07:10;10.43;;;6.57;;
80578;SDS011;69939;52.402;6.608;2023-06-24T00:09:37;11.25;;;6.65;;
80578;SDS011;69939;52.402;6.608;2023-06-24T00:12:05;7.35;;;5.00;;
80578;SDS011;69939;52.402;6.608;2023-06-24T00:14:34;9.35;;;5.95;;
80578;SDS011;69939;52.402;6.608;2023-06-24T00:17:01;11.70;;;6.65;;
80578;SDS011;69939;52.402;6.608;2023-06-24T00:19:28;8.73;;;5.82;;
80578;SDS011;69939;52.402;6.608;2023-06-24T00:21:56;11.68;;;7.03;;
80578;SDS011;69939;52.402;6.608;2023-06-24T00:24:23;11.35;;;6.93;;
80578;SDS011;69939;52.402;6.608;2023-06-24T00:26:50;10.25;;;5.90;;
80578;SDS011;69939;52.402;6.608;2023-06-24T00:29:18;8.63;;;5.97;;
80578;SDS011;69939;52.402;6.608;2023-06-24T00:31:46;12.52;;;7.10;;
80578;SDS011;69939;52.402;6.608;2023-06-24T00:34:13;9.88;;;6.75;;
80578;SDS011;69939;52.402;6.608;2023-06-24T00:36:41;9.57;;;5.93;;
80578;SDS011;69939;52.402;6.608;2023-06-24T00:39:09;11.95;;;6.15;;
80578;SDS011;69939;52.402;6.608;2023-06-24T00:41:35;9.13;;;5.93;;
80578;SDS011;69939;52.402;6.608;2023-06-24T00:44:02;10.30;;;6.32;;
80578;SDS011;69939;52.402;6.608;2023-06-24T00:46:29;11.60;;;6.18;;
80578;SDS011;69939;52.402;6.608;2023-06-24T00:48:59;11.98;;;7.65;;
80578;SDS011;69939;52.402;6.608;2023-06-24T00:51:28;10.95;;;5.93;;
80578;SDS011;69939;52.402;6.608;2023-06-24T00:53:56;9.18;;;5.97;;
80578;SDS011;69939;52.402;6.608;2023-06-24T00:56:25;12.43;;;6.93;;
80578;SDS011;69939;52.402;6.608;2023-06-24T00:58:56;12.18;;;7.18;;
80578;SDS011;69939;52.402;6.608;2023-06-24T01:01:26;9.65;;;5.90;;
80578;SDS011;69939;52.402;6.608;2023-06-24T01:03:59;14.35;;;7.28;;
80578;SDS011;69939;52.402;6.608;2023-06-24T01:06:27;13.25;;;7.80;;
80578;SDS011;69939;52.402;6.608;2023-06-24T01:08:55;8.38;;;5.38;;
80578;SDS011;69939;52.402;6.608;2023-06-24T01:11:22;9.60;;;6.43;;
80578;SDS011;69939;52.402;6.608;2023-06-24T01:13:49;10.82;;;6.55;;
80578;SDS011;69939;52.402;6.608;2023-06-24T01:16:18;9.85;;;6.50;;
80578;SDS011;69939;52.402;6.608;2023-06-24T01:18:57;10.50;;;6.72;;
80578;SDS011;69939;52.402;6.608;2023-06-24T01:21:51;8.02;;;5.43;;
80578;SDS011;69939;52.402;6.608;2023-06-24T01:24:41;11.65;;;6.57;;
80578;SDS011;69939;52.402;6.608;2023-06-24T01:27:46;9.20;;;6.18;;
80578;SDS011;69939;52.402;6.608;2023-06-24T01:31:00;9.75;;;5.82;;
80578;SDS011;69939;52.402;6.608;2023-06-24T01:33:58;11.27;;;6.95;;
80578;SDS011;69939;52.402;6.608;2023-06-24T01:36:34;8.40;;;6.10;;
80578;SDS011;69939;52.402;6.608;2023-06-24T01:39:05;9.77;;;6.05;;
80578;SDS011;69939;52.402;6.608;2023-06-24T01:41:36;8.48;;;5.25;;
80578;SDS011;69939;52.402;6.608;2023-06-24T01:44:09;8.00;;;4.65;;
80578;SDS011;69939;52.402;6.608;2023-06-24T01:46:41;9.95;;;5.88;;
80578;SDS011;69939;52.402;6.608;2023-06-24T01:49:13;10.13;;;6.53;;
80578;SDS011;69939;52.402;6.608;2023-06-24T01:51:42;13.60;;;7.28;;
80578;SDS011;69939;52.402;6.608;2023-06-24T01:54:14;11.63;;;6.82;;
80578;SDS011;69939;52.402;6.608;2023-06-24T01:56:45;9.63;;;5.85;;
80578;SDS011;69939;52.402;6.608;2023-06-24T01:59:15;11.55;;;7.00;;
80578;SDS011;69939;52.402;6.608;2023-06-24T02:01:46;12.63;;;7.40;;
80578;SDS011;69939;52.402;6.608;2023-06-24T02:04:14;9.98;;;6.95;;
80578;SDS011;69939;52.402;6.608;2023-06-24T02:06:44;10.50;;;6.68;;
80578;SDS011;69939;52.402;6.608;2023-06-24T02:09:13;10.05;;;6.72;;
80578;SDS011;69939;52.402;6.608;2023-06-24T02:11:44;10.18;;;6.65;;
80578;SDS011;69939;52.402;6.608;2023-06-24T02:14:13;12.18;;;7.15;;
80578;SDS011;69939;52.402;6.608;2023-06-24T02:16:43;11.93;;;6.22;;
80578;SDS011;69939;52.402;6.608;2023-06-24T02:19:13;7.35;;;5.05;;
80578;SDS011;69939;52.402;6.608;2023-06-24T02:21:43;8.90;;;6.20;;
80578;SDS011;69939;52.402;6.608;2023-06-24T02:24:16;10.50;;;6.63;;
80578;SDS011;69939;52.402;6.608;2023-06-24T02:26:45;9.43;;;5.20;;
80578;SDS011;69939;52.402;6.608;2023-06-24T02:29:13;9.18;;;5.93;;
80578;SDS011;69939;52.402;6.608;2023-06-24T02:31:41;14.23;;;7.22;;
80578;SDS011;69939;52.402;6.608;2023-06-24T02:34:09;12.50;;;7.05;;
80578;SDS011;69939;52.402;6.608;2023-06-24T02:36:36;9.93;;;6.55;;
80578;SDS011;69939;52.402;6.608;2023-06-24T02:39:02;10.73;;;6.65;;
80578;SDS011;69939;52.402;6.608;2023-06-24T02:41:30;11.30;;;6.55;;
80578;SDS011;69939;52.402;6.608;2023-06-24T02:43:56;12.45;;;5.70;;
80578;SDS011;69939;52.402;6.608;2023-06-24T02:46:23;6.75;;;4.05;;
80578;SDS011;69939;52.402;6.608;2023-06-24T02:48:54;10.65;;;5.40;;
80578;SDS011;69939;52.402;6.608;2023-06-24T02:51:24;7.65;;;5.40;;
80578;SDS011;69939;52.402;6.608;2023-06-24T02:53:52;7.72;;;5.10;;
80578;SDS011;69939;52.402;6.608;2023-06-24T02:56:19;10.60;;;6.45;;
80578;SDS011;69939;52.402;6.608;2023-06-24T02:58:47;11.95;;;7.38;;
80578;SDS011;69939;52.402;6.608;2023-06-24T03:01:17;8.32;;;5.03;;
80578;SDS011;69939;52.402;6.608;2023-06-24T03:03:49;8.07;;;4.78;;
80578;SDS011;69939;52.402;6.608;2023-06-24T03:06:19;5.93;;;4.05;;
80578;SDS011;69939;52.402;6.608;2023-06-24T03:08:49;9.68;;;6.25;;
80578;SDS011;69939;52.402;6.608;2023-06-24T03:11:16;11.13;;;7.13;;
80578;SDS011;69939;52.402;6.608;2023-06-24T03:13:43;10.75;;;6.50;;
80578;SDS011;69939;52.402;6.608;2023-06-24T03:16:10;5.65;;;3.92;;
80578;SDS011;69939;52.402;6.608;2023-06-24T03:18:38;8.15;;;5.90;;
80578;SDS011;69939;52.402;6.608;2023-06-24T03:21:07;9.70;;;6.05;;
80578;SDS011;69939;52.402;6.608;2023-06-24T03:23:34;9.27;;;5.47;;
80578;SDS011;69939;52.402;6.608;2023-06-24T03:26:02;7.38;;;5.10;;
80578;SDS011;69939;52.402;6.608;2023-06-24T03:28:30;10.20;;;6.07;;
80578;SDS011;69939;52.402;6.608;2023-06-24T03:30:57;9.93;;;6.55;;
80578;SDS011;69939;52.402;6.608;2023-06-24T03:33:26;9.88;;;5.35;;
80578;SDS011;69939;52.402;6.608;2023-06-24T03:35:52;10.32;;;5.97;;
80578;SDS011;69939;52.402;6.608;2023-06-24T03:38:20;8.20;;;5.95;;
80578;SDS011;69939;52.402;6.608;2023-06-24T03:40:47;9.60;;;5.85;;
80578;SDS011;69939;52.402;6.608;2023-06-24T03:43:15;12.20;;;7.22;;
80578;SDS011;69939;52.402;6.608;2023-06-24T03:45:42;11.30;;;6.70;;
80578;SDS011;69939;52.402;6.608;2023-06-24T03:48:09;9.35;;;5.88;;
80578;SDS011;69939;52.402;6.608;2023-06-24T03:50:36;11.65;;;7.75;;
80578;SDS011;69939;52.402;6.608;2023-06-24T03:53:03;11.85;;;7.57;;
80578;SDS011;69939;52.402;6.608;2023-06-24T03:55:30;11.05;;;7.25;;
80578;SDS011;69939;52.402;6.608;2023-06-24T03:57:57;10.15;;;6.70;;
80578;SDS011;69939;52.402;6.608;2023-06-24T04:00:25;13.13;;;7.70;;
80578;SDS011;69939;52.402;6.608;2023-06-24T04:02:52;11.60;;;7.20;;
80578;SDS011;69939;52.402;6.608;2023-06-24T04:05:19;11.25;;;7.15;;
80578;SDS011;69939;52.402;6.608;2023-06-24T04:07:46;10.55;;;6.68;;
80578;SDS011;69939;52.402;6.608;2023-06-24T04:10:15;11.73;;;7.65;;
80578;SDS011;69939;52.402;6.608;2023-06-24T04:12:43;11.57;;;7.35;;
80578;SDS011;69939;52.402;6.608;2023-06-24T04:15:10;10.80;;;7.60;;
80578;SDS011;69939;52.402;6.608;2023-06-24T04:17:39;11.15;;;7.80;;
80578;SDS011;69939;52.402;6.608;2023-06-24T04:20:06;10.50;;;6.78;;
80578;SDS011;69939;52.402;6.608;2023-06-24T04:22:34;11.02;;;6.95;;
80578;SDS011;69939;52.402;6.608;2023-06-24T04:25:02;9.80;;;7.10;;
80578;SDS011;69939;52.402;6.608;2023-06-24T04:27:30;11.52;;;7.32;;
80578;SDS011;69939;52.402;6.608;2023-06-24T04:29:57;10.90;;;7.00;;
80578;SDS011;69939;52.402;6.608;2023-06-24T04:32:24;12.63;;;7.13;;
80578;SDS011;69939;52.402;6.608;2023-06-24T04:34:52;12.43;;;7.75;;
80578;SDS011;69939;52.402;6.608;2023-06-24T04:37:19;11.82;;;7.93;;
80578;SDS011;69939;52.402;6.608;2023-06-24T04:39:46;12.52;;;8.52;;
80578;SDS011;69939;52.402;6.608;2023-06-24T04:42:14;10.73;;;7.78;;
80578;SDS011;69939;52.402;6.608;2023-06-24T04:44:40;13.23;;;8.20;;
80578;SDS011;69939;52.402;6.608;2023-06-24T04:47:07;10.60;;;7.15;;
80578;SDS011;69939;52.402;6.608;2023-06-24T04:49:34;12.63;;;7.47;;
80578;SDS011;69939;52.402;6.608;2023-06-24T04:52:02;10.57;;;8.00;;
80578;SDS011;69939;52.402;6.608;2023-06-24T04:54:32;14.68;;;8.20;;
80578;SDS011;69939;52.402;6.608;2023-06-24T04:56:58;10.70;;;7.20;;
80578;SDS011;69939;52.402;6.608;2023-06-24T04:59:25;13.43;;;7.75;;
80578;SDS011;69939;52.402;6.608;2023-06-24T05:01:52;11.60;;;7.93;;
80578;SDS011;69939;52.402;6.608;2023-06-24T05:04:18;10.20;;;7.70;;
80578;SDS011;69939;52.402;6.608;2023-06-24T05:06:45;11.20;;;7.75;;
80578;SDS011;69939;52.402;6.608;2023-06-24T05:09:13;12.02;;;8.07;;
80578;SDS011;69939;52.402;6.608;2023-06-24T05:11:41;12.13;;;8.02;;
80578;SDS011;69939;52.402;6.608;2023-06-24T05:14:07;11.52;;;8.32;;
80578;SDS011;69939;52.402;6.608;2023-06-24T05:16:34;9.48;;;7.43;;
80578;SDS011;69939;52.402;6.608;2023-06-24T05:19:01;11.02;;;8.05;;
80578;SDS011;69939;52.402;6.608;2023-06-24T05:21:27;11.82;;;8.43;;
80578;SDS011;69939;52.402;6.608;2023-06-24T05:23:54;12.00;;;8.07;;
80578;SDS011;69939;52.402;6.608;2023-06-24T05:26:22;13.68;;;8.60;;
80578;SDS011;69939;52.402;6.608;2023-06-24T05:28:49;12.70;;;9.25;;
80578;SDS011;69939;52.402;6.608;2023-06-24T05:31:16;11.80;;;8.82;;
80578;SDS011;69939;52.402;6.608;2023-06-24T05:33:43;11.98;;;8.80;;
80578;SDS011;69939;52.402;6.608;2023-06-24T05:36:10;11.77;;;8.43;;
80578;SDS011;69939;52.402;6.608;2023-06-24T05:38:36;12.52;;;9.40;;
80578;SDS011;69939;52.402;6.608;2023-06-24T05:41:03;12.25;;;8.60;;
80578;SDS011;69939;52.402;6.608;2023-06-24T05:43:31;13.65;;;9.50;;
80578;SDS011;69939;52.402;6.608;2023-06-24T05:45:59;13.02;;;9.48;;
80578;SDS011;69939;52.402;6.608;2023-06-24T05:48:25;14.88;;;8.77;;
80578;SDS011;69939;52.402;6.608;2023-06-24T05:50:52;11.77;;;9.07;;
80578;SDS011;69939;52.402;6.608;2023-06-24T05:53:19;14.93;;;9.63;;
80578;SDS011;69939;52.402;6.608;2023-06-24T05:55:45;13.40;;;9.98;;
80578;SDS011;69939;52.402;6.608;2023-06-24T05:58:12;11.50;;;9.77;;
80578;SDS011;69939;52.402;6.608;2023-06-24T06:00:40;12.60;;;9.55;;
80578;SDS011;69939;52.402;6.608;2023-06-24T06:03:07;14.60;;;10.45;;
80578;SDS011;69939;52.402;6.608;2023-06-24T06:05:34;11.63;;;9.75;;
80578;SDS011;69939;52.402;6.608;2023-06-24T06:08:02;11.85;;;10.60;;
80578;SDS011;69939;52.402;6.608;2023-06-24T06:10:31;11.40;;;9.93;;
80578;SDS011;69939;52.402;6.608;2023-06-24T06:12:58;12.93;;;9.80;;
80578;SDS011;69939;52.402;6.608;2023-06-24T06:15:25;11.07;;;9.93;;
80578;SDS011;69939;52.402;6.608;2023-06-24T06:17:53;11.10;;;9.98;;
80578;SDS011;69939;52.402;6.608;2023-06-24T06:20:20;10.48;;;9.40;;
80578;SDS011;69939;52.402;6.608;2023-06-24T06:22:46;11.05;;;9.80;;
80578;SDS011;69939;52.402;6.608;2023-06-24T06:25:13;11.57;;;10.38;;
80578;SDS011;69939;52.402;6.608;2023-06-24T06:27:40;13.55;;;10.82;;
80578;SDS011;69939;52.402;6.608;2023-06-24T06:30:07;12.07;;;10.77;;
80578;SDS011;69939;52.402;6.608;2023-06-24T06:32:34;10.82;;;9.82;;
80578;SDS011;69939;52.402;6.608;2023-06-24T06:35:03;11.57;;;10.38;;
80578;SDS011;69939;52.402;6.608;2023-06-24T06:37:30;12.65;;;10.95;;
80578;SDS011;69939;52.402;6.608;2023-06-24T06:39:57;11.68;;;10.50;;
80578;SDS011;69939;52.402;6.608;2023-06-24T06:42:24;12.38;;;10.35;;
80578;SDS011;69939;52.402;6.608;2023-06-24T06:44:50;12.20;;;9.93;;
80578;SDS011;69939;52.402;6.608;2023-06-24T06:47:17;11.23;;;9.90;;
80578;SDS011;69939;52.402;6.608;2023-06-24T06:49:44;11.00;;;9.90;;
80578;SDS011;69939;52.402;6.608;2023-06-24T06:52:12;11.45;;;10.27;;
80578;SDS011;69939;52.402;6.608;2023-06-24T06:54:38;10.07;;;9.05;;
80578;SDS011;69939;52.402;6.608;2023-06-24T06:57:05;10.85;;;9.68;;
80578;SDS011;69939;52.402;6.608;2023-06-24T06:59:32;10.98;;;9.50;;
80578;SDS011;69939;52.402;6.608;2023-06-24T07:01:59;9.30;;;8.50;;
80578;SDS011;69939;52.402;6.608;2023-06-24T07:04:25;9.02;;;8.18;;
80578;SDS011;69939;52.402;6.608;2023-06-24T07:06:52;12.27;;;9.73;;
80578;SDS011;69939;52.402;6.608;2023-06-24T07:09:20;9.23;;;8.32;;
80578;SDS011;69939;52.402;6.608;2023-06-24T07:11:47;9.48;;;8.57;;
80578;SDS011;69939;52.402;6.608;2023-06-24T07:14:13;9.98;;;8.98;;
80578;SDS011;69939;52.402;6.608;2023-06-24T07:16:40;9.80;;;8.90;;
80578;SDS011;69939;52.402;6.608;2023-06-24T07:19:07;11.30;;;9.68;;
80578;SDS011;69939;52.402;6.608;2023-06-24T07:21:33;10.32;;;9.32;;
80578;SDS011;69939;52.402;6.608;2023-06-24T07:24:00;10.10;;;9.13;;
80578;SDS011;69939;52.402;6.608;2023-06-24T07:26:28;10.98;;;9.95;;
80578;SDS011;69939;52.402;6.608;2023-06-24T07:29:00;10.55;;;9.60;;
80578;SDS011;69939;52.402;6.608;2023-06-24T07:31:26;10.70;;;9.60;;
80578;SDS011;69939;52.402;6.608;2023-06-24T07:33:53;11.38;;;10.25;;
80578;SDS011;69939;52.402;6.608;2023-06-24T07:36:19;11.25;;;10.35;;
80578;SDS011;69939;52.402;6.608;2023-06-24T07:38:46;11.20;;;10.07;;
80578;SDS011;69939;52.402;6.608;2023-06-24T07:41:12;11.90;;;10.50;;
80578;SDS011;69939;52.402;6.608;2023-06-24T07:43:40;11.43;;;9.88;;
80578;SDS011;69939;52.402;6.608;2023-06-24T07:46:06;11.50;;;9.75;;
80578;SDS011;69939;52.402;6.608;2023-06-24T07:48:33;11.55;;;10.45;;
80578;SDS011;69939;52.402;6.608;2023-06-24T07:51:00;12.90;;;10.20;;
80578;SDS011;69939;52.402;6.608;2023-06-24T07:53:29;13.13;;;10.98;;
80578;SDS011;69939;52.402;6.608;2023-06-24T07:55:55;13.80;;;10.60;;
80578;SDS011;69939;52.402;6.608;2023-06-24T07:58:22;12.60;;;10.85;;
80578;SDS011;69939;52.402;6.608;2023-06-24T08:00:50;13.40;;;11.27;;
80578;SDS011;69939;52.402;6.608;2023-06-24T08:03:16;11.70;;;10.55;;
80578;SDS011;69939;52.402;6.608;2023-06-24T08:05:43;12.80;;;10.23;;
80578;SDS011;69939;52.402;6.608;2023-06-24T08:08:14;12.38;;;10.63;;
80578;SDS011;69939;52.402;6.608;2023-06-24T08:10:41;11.98;;;10.77;;
80578;SDS011;69939;52.402;6.608;2023-06-24T08:13:07;12.00;;;10.80;;
80578;SDS011;69939;52.402;6.608;2023-06-24T08:15:34;12.82;;;11.60;;
80578;SDS011;69939;52.402;6.608;2023-06-24T08:18:02;11.65;;;10.45;;
80578;SDS011;69939;52.402;6.608;2023-06-24T08:20:29;13.20;;;11.55;;
80578;SDS011;69939;52.402;6.608;2023-06-24T08:22:55;11.32;;;10.27;;
80578;SDS011;69939;52.402;6.608;2023-06-24T08:25:22;11.18;;;10.20;;
80578;SDS011;69939;52.402;6.608;2023-06-24T08:27:49;10.18;;;9.27;;
80578;SDS011;69939;52.402;6.608;2023-06-24T08:30:15;10.57;;;9.45;;
80578;SDS011;69939;52.402;6.608;2023-06-24T08:32:42;10.90;;;9.73;;
80578;SDS011;69939;52.402;6.608;2023-06-24T08:35:10;10.30;;;9.20;;
80578;SDS011;69939;52.402;6.608;2023-06-24T08:37:36;10.85;;;9.85;;
80578;SDS011;69939;52.402;6.608;2023-06-24T08:40:04;10.60;;;9.50;;
80578;SDS011;69939;52.402;6.608;2023-06-24T08:42:31;11.90;;;10.18;;
80578;SDS011;69939;52.402;6.608;2023-06-24T08:44:58;9.30;;;8.30;;
80578;SDS011;69939;52.402;6.608;2023-06-24T08:47:25;10.65;;;8.93;;
80578;SDS011;69939;52.402;6.608;2023-06-24T08:49:55;10.50;;;9.40;;
80578;SDS011;69939;52.402;6.608;2023-06-24T08:52:30;8.15;;;7.35;;
80578;SDS011;69939;52.402;6.608;2023-06-24T08:54:59;9.35;;;8.27;;
80578;SDS011;69939;52.402;6.608;2023-06-24T08:57:27;8.68;;;7.57;;
80578;SDS011;69939;52.402;6.608;2023-06-24T08:59:54;10.68;;;8.82;;
80578;SDS011;69939;52.402;6.608;2023-06-24T09:02:21;11.07;;;8.50;;
80578;SDS011;69939;52.402;6.608;2023-06-24T09:04:47;10.25;;;9.15;;
80578;SDS011;69939;52.402;6.608;2023-06-24T09:07:26;10.48;;;8.75;;
80578;SDS011;69939;52.402;6.608;2023-06-24T09:09:54;10.02;;;8.23;;
80578;SDS011;69939;52.402;6.608;2023-06-24T09:12:21;9.93;;;8.93;;
80578;SDS011;69939;52.402;6.608;2023-06-24T09:17:17;9.73;;;7.80;;
80578;SDS011;69939;52.402;6.608;2023-06-24T09:19:47;9.93;;;7.63;;
80578;SDS011;69939;52.402;6.608;2023-06-24T09:22:14;7.22;;;6.50;;
80578;SDS011;69939;52.402;6.608;2023-06-24T09:24:42;8.93;;;7.25;;
80578;SDS011;69939;52.402;6.608;2023-06-24T09:27:13;8.15;;;7.22;;
80578;SDS011;69939;52.402;6.608;2023-06-24T09:29:40;8.85;;;7.85;;
80578;SDS011;69939;52.402;6.608;2023-06-24T09:32:08;8.38;;;7.60;;
80578;SDS011;69939;52.402;6.608;2023-06-24T09:34:35;5.97;;;5.45;;
80578;SDS011;69939;52.402;6.608;2023-06-24T09:37:03;6.43;;;5.32;;
80578;SDS011;69939;52.402;6.608;2023-06-24T09:39:34;4.72;;;4.22;;
80578;SDS011;69939;52.402;6.608;2023-06-24T09:42:02;5.30;;;4.38;;
80578;SDS011;69939;52.402;6.608;2023-06-24T09:44:32;4.88;;;4.38;;
80578;SDS011;69939;52.402;6.608;2023-06-24T09:46:59;6.60;;;4.75;;
80578;SDS011;69939;52.402;6.608;2023-06-24T09:49:26;5.80;;;5.18;;
80578;SDS011;69939;52.402;6.608;2023-06-24T09:51:55;3.83;;;3.45;;
80578;SDS011;69939;52.402;6.608;2023-06-24T09:54:22;4.40;;;3.95;;
80578;SDS011;69939;52.402;6.608;2023-06-24T09:56:52;3.35;;;2.92;;
80578;SDS011;69939;52.402;6.608;2023-06-24T09:59:19;3.63;;;3.25;;
80578;SDS011;69939;52.402;6.608;2023-06-24T10:01:49;3.65;;;3.25;;
80578;SDS011;69939;52.402;6.608;2023-06-24T10:04:18;3.20;;;2.90;;
80578;SDS011;69939;52.402;6.608;2023-06-24T10:06:47;3.72;;;2.90;;
80578;SDS011;69939;52.402;6.608;2023-06-24T10:09:14;3.55;;;2.65;;
80578;SDS011;69939;52.402;6.608;2023-06-24T10:14:09;3.17;;;2.28;;
80578;SDS011;69939;52.402;6.608;2023-06-24T10:16:36;3.70;;;2.58;;
80578;SDS011;69939;52.402;6.608;2023-06-24T10:19:04;3.03;;;2.72;;
80578;SDS011;69939;52.402;6.608;2023-06-24T10:21:43;5.38;;;2.72;;
80578;SDS011;69939;52.402;6.608;2023-06-24T10:24:12;3.75;;;3.30;;
80578;SDS011;69939;52.402;6.608;2023-06-24T10:26:39;3.38;;;2.60;;
80578;SDS011;69939;52.402;6.608;2023-06-24T10:29:10;3.05;;;2.72;;
80578;SDS011;69939;52.402;6.608;2023-06-24T10:31:51;3.53;;;3.20;;
80578;SDS011;69939;52.402;6.608;2023-06-24T10:34:31;3.95;;;2.95;;
80578;SDS011;69939;52.402;6.608;2023-06-24T10:37:08;4.22;;;3.30;;
80578;SDS011;69939;52.402;6.608;2023-06-24T10:39:39;3.97;;;3.08;;
80578;SDS011;69939;52.402;6.608;2023-06-24T10:42:29;3.08;;;2.42;;
80578;SDS011;69939;52.402;6.608;2023-06-24T10:44:58;2.22;;;2.03;;
80578;SDS011;69939;52.402;6.608;2023-06-24T10:47:27;3.15;;;2.50;;
80578;SDS011;69939;52.402;6.608;2023-06-24T10:50:06;3.05;;;2.42;;
80578;SDS011;69939;52.402;6.608;2023-06-24T10:52:37;3.13;;;2.40;;
80578;SDS011;69939;52.402;6.608;2023-06-24T10:55:07;5.38;;;2.15;;
80578;SDS011;69939;52.402;6.608;2023-06-24T10:57:34;2.58;;;2.38;;
80578;SDS011;69939;52.402;6.608;2023-06-24T11:00:02;2.30;;;1.95;;
80578;SDS011;69939;52.402;6.608;2023-06-24T11:02:30;4.45;;;2.22;;
80578;SDS011;69939;52.402;6.608;2023-06-24T11:04:57;3.03;;;2.50;;
80578;SDS011;69939;52.402;6.608;2023-06-24T11:07:29;2.50;;;2.05;;
80578;SDS011;69939;52.402;6.608;2023-06-24T11:10:00;5.35;;;2.35;;
80578;SDS011;69939;52.402;6.608;2023-06-24T11:12:31;2.20;;;1.80;;
80578;SDS011;69939;52.402;6.608;2023-06-24T11:14:59;3.22;;;2.38;;
80578;SDS011;69939;52.402;6.608;2023-06-24T11:17:26;2.70;;;2.50;;
80578;SDS011;69939;52.402;6.608;2023-06-24T11:19:54;2.95;;;2.55;;
80578;SDS011;69939;52.402;6.608;2023-06-24T11:22:22;3.70;;;3.25;;
80578;SDS011;69939;52.402;6.608;2023-06-24T11:24:51;3.80;;;3.08;;
80578;SDS011;69939;52.402;6.608;2023-06-24T11:27:23;3.50;;;2.38;;
80578;SDS011;69939;52.402;6.608;2023-06-24T11:29:52;3.40;;;2.65;;
80578;SDS011;69939;52.402;6.608;2023-06-24T11:32:23;3.35;;;2.70;;
80578;SDS011;69939;52.402;6.608;2023-06-24T11:34:50;3.20;;;2.58;;
80578;SDS011;69939;52.402;6.608;2023-06-24T11:37:17;3.15;;;2.42;;
80578;SDS011;69939;52.402;6.608;2023-06-24T11:40:01;5.45;;;2.97;;
80578;SDS011;69939;52.402;6.608;2023-06-24T11:42:30;4.95;;;2.72;;
80578;SDS011;69939;52.402;6.608;2023-06-24T11:45:00;3.22;;;2.70;;
80578;SDS011;69939;52.402;6.608;2023-06-24T11:47:30;2.80;;;2.33;;
80578;SDS011;69939;52.402;6.608;2023-06-24T11:49:59;4.82;;;3.50;;
80578;SDS011;69939;52.402;6.608;2023-06-24T11:52:31;2.95;;;2.45;;
80578;SDS011;69939;52.402;6.608;2023-06-24T11:55:00;5.43;;;3.70;;
80578;SDS011;69939;52.402;6.608;2023-06-24T12:02:55;4.82;;;3.70;;
80578;SDS011;69939;52.402;6.608;2023-06-24T12:05:23;5.22;;;3.00;;
80578;SDS011;69939;52.402;6.608;2023-06-24T12:07:54;3.85;;;3.35;;
80578;SDS011;69939;52.402;6.608;2023-06-24T12:12:52;3.75;;;2.30;;
80578;SDS011;69939;52.402;6.608;2023-06-24T12:15:25;7.38;;;3.28;;
80578;SDS011;69939;52.402;6.608;2023-06-24T12:17:51;4.88;;;3.45;;
80578;SDS011;69939;52.402;6.608;2023-06-24T12:20:18;4.20;;;2.92;;
80578;SDS011;69939;52.402;6.608;2023-06-24T12:22:46;3.95;;;3.00;;
80578;SDS011;69939;52.402;6.608;2023-06-24T12:25:14;3.67;;;2.70;;
80578;SDS011;69939;52.402;6.608;2023-06-24T12:27:42;4.20;;;3.08;;
80578;SDS011;69939;52.402;6.608;2023-06-24T12:30:10;3.95;;;2.92;;
80578;SDS011;69939;52.402;6.608;2023-06-24T12:32:38;4.13;;;3.25;;
80578;SDS011;69939;52.402;6.608;2023-06-24T12:35:05;5.38;;;3.63;;
80578;SDS011;69939;52.402;6.608;2023-06-24T12:37:34;4.47;;;3.50;;
80578;SDS011;69939;52.402;6.608;2023-06-24T12:40:00;3.80;;;3.40;;
80578;SDS011;69939;52.402;6.608;2023-06-24T12:42:28;3.88;;;3.05;;
80578;SDS011;69939;52.402;6.608;2023-06-24T12:44:56;3.38;;;3.08;;
80578;SDS011;69939;52.402;6.608;2023-06-24T12:47:22;3.67;;;2.88;;
80578;SDS011;69939;52.402;6.608;2023-06-24T12:49:49;3.28;;;2.97;;
80578;SDS011;69939;52.402;6.608;2023-06-24T12:52:15;3.83;;;3.25;;
80578;SDS011;69939;52.402;6.608;2023-06-24T12:54:43;4.97;;;3.35;;
80578;SDS011;69939;52.402;6.608;2023-06-24T12:57:10;4.40;;;3.42;;
80578;SDS011;69939;52.402;6.608;2023-06-24T12:59:37;3.42;;;3.13;;
80578;SDS011;69939;52.402;6.608;2023-06-24T13:02:05;3.03;;;2.70;;
80578;SDS011;69939;52.402;6.608;2023-06-24T13:04:33;3.20;;;2.90;;
80578;SDS011;69939;52.402;6.608;2023-06-24T13:07:00;3.67;;;3.38;;
80578;SDS011;69939;52.402;6.608;2023-06-24T13:09:28;2.78;;;2.58;;
80578;SDS011;69939;52.402;6.608;2023-06-24T13:11:54;2.85;;;2.47;;
80578;SDS011;69939;52.402;6.608;2023-06-24T13:14:21;2.97;;;2.78;;
80578;SDS011;69939;52.402;6.608;2023-06-24T13:16:50;4.00;;;3.05;;
80578;SDS011;69939;52.402;6.608;2023-06-24T13:19:18;4.53;;;2.95;;
80578;SDS011;69939;52.402;6.608;2023-06-24T13:21:44;4.13;;;3.25;;
80578;SDS011;69939;52.402;6.608;2023-06-24T13:24:11;3.90;;;2.92;;
80578;SDS011;69939;52.402;6.608;2023-06-24T13:26:38;3.60;;;3.25;;
80578;SDS011;69939;52.402;6.608;2023-06-24T13:29:05;3.20;;;2.90;;
80578;SDS011;69939;52.402;6.608;2023-06-24T13:31:32;3.72;;;3.20;;
80578;SDS011;69939;52.402;6.608;2023-06-24T13:33:59;3.58;;;2.83;;
80578;SDS011;69939;52.402;6.608;2023-06-24T13:36:29;3.55;;;3.17;;
80578;SDS011;69939;52.402;6.608;2023-06-24T13:38:58;3.75;;;3.08;;
80578;SDS011;69939;52.402;6.608;2023-06-24T13:41:24;5.53;;;3.78;;
80578;SDS011;69939;52.402;6.608;2023-06-24T13:43:54;3.28;;;2.92;;
80578;SDS011;69939;52.402;6.608;2023-06-24T13:46:21;4.72;;;3.63;;
80578;SDS011;69939;52.402;6.608;2023-06-24T13:48:48;3.65;;;3.35;;
80578;SDS011;69939;52.402;6.608;2023-06-24T13:51:14;3.65;;;3.35;;
80578;SDS011;69939;52.402;6.608;2023-06-24T13:53:42;3.92;;;3.50;;
80578;SDS011;69939;52.402;6.608;2023-06-24T13:56:09;4.10;;;3.50;;
80578;SDS011;69939;52.402;6.608;2023-06-24T13:58:35;3.72;;;3.42;;
80578;SDS011;69939;52.402;6.608;2023-06-24T14:01:02;4.68;;;3.58;;
80578;SDS011;69939;52.402;6.608;2023-06-24T14:03:29;5.43;;;3.63;;
80578;SDS011;69939;52.402;6.608;2023-06-24T14:05:55;4.68;;;3.90;;
80578;SDS011;69939;52.402;6.608;2023-06-24T14:08:22;3.72;;;3.35;;
80578;SDS011;69939;52.402;6.608;2023-06-24T14:10:50;3.67;;;3.17;;
80578;SDS011;69939;52.402;6.608;2023-06-24T14:13:17;9.73;;;3.80;;
80578;SDS011;69939;52.402;6.608;2023-06-24T14:15:43;3.45;;;3.15;;
80578;SDS011;69939;52.402;6.608;2023-06-24T14:18:13;4.18;;;3.63;;
80578;SDS011;69939;52.402;6.608;2023-06-24T14:20:39;4.38;;;3.75;;
80578;SDS011;69939;52.402;6.608;2023-06-24T14:23:07;4.45;;;3.85;;
80578;SDS011;69939;52.402;6.608;2023-06-24T14:25:34;4.80;;;3.60;;
80578;SDS011;69939;52.402;6.608;2023-06-24T14:28:03;4.15;;;3.08;;
80578;SDS011;69939;52.402;6.608;2023-06-24T14:30:30;4.30;;;3.90;;
80578;SDS011;69939;52.402;6.608;2023-06-24T14:32:57;3.92;;;3.10;;
80578;SDS011;69939;52.402;6.608;2023-06-24T14:35:23;5.30;;;4.28;;
80578;SDS011;69939;52.402;6.608;2023-06-24T14:37:50;4.53;;;3.80;;
80578;SDS011;69939;52.402;6.608;2023-06-24T14:40:17;4.50;;;3.80;;
80578;SDS011;69939;52.402;6.608;2023-06-24T14:42:43;5.13;;;3.72;;
80578;SDS011;69939;52.402;6.608;2023-06-24T14:45:12;5.00;;;4.03;;
80578;SDS011;69939;52.402;6.608;2023-06-24T14:47:39;3.95;;;3.30;;
80578;SDS011;69939;52.402;6.608;2023-06-24T14:50:06;4.57;;;3.70;;
80578;SDS011;69939;52.402;6.608;2023-06-24T14:52:33;4.55;;;4.15;;
80578;SDS011;69939;52.402;6.608;2023-06-24T14:54:59;3.90;;;3.50;;
80578;SDS011;69939;52.402;6.608;2023-06-24T14:57:26;4.13;;;3.47;;
80578;SDS011;69939;52.402;6.608;2023-06-24T14:59:53;3.92;;;3.30;;
80578;SDS011;69939;52.402;6.608;2023-06-24T15:02:20;4.43;;;3.75;;